sensor_id;sensor_type;location;lat;lon;timestamp;pressure;altitude;pressure_sealevel;temperature;humidity
34081;BME280;20358;50.272;19.026;2023-03-16T00:02:51;98465.19;;;-1.44;60.96
34081;BME280;20358;50.272;19.026;2023-03-16T00:05:57;98466.13;;;-1.47;60.71
34081;BME280;20358;50.272;19.026;2023-03-16T00:09:03;98469.69;;;-1.51;60.89
34081;BME280;20358;50.272;19.026;2023-03-16T00:12:14;98465.50;;;-1.56;61.56
34081;BME280;20358;50.272;19.026;2023-03-16T00:15:21;98468.09;;;-1.58;61.63
34081;BME280;20358;50.272;19.026;2023-03-16T00:18:30;98474.22;;;-1.60;61.19
34081;BME280;20358;50.272;19.026;2023-03-16T00:21:40;98469.19;;;-1.66;61.68
34081;BME280;20358;50.272;19.026;2023-03-16T00:25:13;98477.97;;;-1.73;61.55
34081;BME280;20358;50.272;19.026;2023-03-16T00:28:21;98480.66;;;-1.76;61.79
34081;BME280;20358;50.272;19.026;2023-03-16T00:31:28;98479.97;;;-1.84;62.79
34081;BME280;20358;50.272;19.026;2023-03-16T00:34:37;98480.69;;;-1.78;61.56
34081;BME280;20358;50.272;19.026;2023-03-16T00:37:45;98475.56;;;-1.79;61.96
34081;BME280;20358;50.272;19.026;2023-03-16T00:40:51;98479.81;;;-1.78;62.29
34081;BME280;20358;50.272;19.026;2023-03-16T00:43:59;98474.06;;;-1.89;62.11
34081;BME280;20358;50.272;19.026;2023-03-16T00:47:04;98478.34;;;-1.88;62.57
34081;BME280;20358;50.272;19.026;2023-03-16T00:50:14;98479.13;;;-1.86;61.87
34081;BME280;20358;50.272;19.026;2023-03-16T00:53:23;98470.50;;;-1.85;62.21
34081;BME280;20358;50.272;19.026;2023-03-16T00:56:30;98477.41;;;-1.86;61.94
34081;BME280;20358;50.272;19.026;2023-03-16T00:59:35;98473.97;;;-1.86;62.66
34081;BME280;20358;50.272;19.026;2023-03-16T01:02:43;98473.16;;;-1.88;62.48
34081;BME280;20358;50.272;19.026;2023-03-16T01:05:51;98481.84;;;-1.91;62.34
34081;BME280;20358;50.272;19.026;2023-03-16T01:09:01;98476.72;;;-1.93;63.00
34081;BME280;20358;50.272;19.026;2023-03-16T01:12:10;98485.34;;;-1.92;62.48
34081;BME280;20358;50.272;19.026;2023-03-16T01:15:19;98475.97;;;-1.98;62.44
34081;BME280;20358;50.272;19.026;2023-03-16T01:18:25;98475.97;;;-1.98;62.79
34081;BME280;20358;50.272;19.026;2023-03-16T01:21:38;98482.06;;;-2.02;62.91
34081;BME280;20358;50.272;19.026;2023-03-16T01:24:45;98492.59;;;-2.08;63.56
34081;BME280;20358;50.272;19.026;2023-03-16T01:27:51;98493.50;;;-2.10;62.99
34081;BME280;20358;50.272;19.026;2023-03-16T01:31:00;98477.34;;;-2.23;63.62
34081;BME280;20358;50.272;19.026;2023-03-16T01:34:09;98498.06;;;-2.23;64.17
34081;BME280;20358;50.272;19.026;2023-03-16T01:37:21;98492.06;;;-2.23;64.13
34081;BME280;20358;50.272;19.026;2023-03-16T01:40:33;98498.16;;;-2.26;64.04
34081;BME280;20358;50.272;19.026;2023-03-16T01:43:40;98497.28;;;-2.26;63.38
34081;BME280;20358;50.272;19.026;2023-03-16T01:46:47;98486.91;;;-2.25;63.62
34081;BME280;20358;50.272;19.026;2023-03-16T01:49:55;98494.69;;;-2.26;64.13
34081;BME280;20358;50.272;19.026;2023-03-16T01:53:09;98501.47;;;-2.21;64.14
34081;BME280;20358;50.272;19.026;2023-03-16T01:56:19;98503.09;;;-2.17;64.10
34081;BME280;20358;50.272;19.026;2023-03-16T01:59:36;98502.25;;;-2.17;63.24
34081;BME280;20358;50.272;19.026;2023-03-16T02:03:20;98504.94;;;-2.22;64.20
34081;BME280;20358;50.272;19.026;2023-03-16T02:06:36;98509.31;;;-2.24;64.30
34081;BME280;20358;50.272;19.026;2023-03-16T02:09:50;98510.22;;;-2.26;63.81
34081;BME280;20358;50.272;19.026;2023-03-16T02:13:01;98501.72;;;-2.33;63.49
34081;BME280;20358;50.272;19.026;2023-03-16T02:16:07;98513.72;;;-2.29;63.99
34081;BME280;20358;50.272;19.026;2023-03-16T02:19:26;98518.94;;;-2.32;64.35
34081;BME280;20358;50.272;19.026;2023-03-16T02:22:43;98486.53;;;-2.48;64.28
34081;BME280;20358;50.272;19.026;2023-03-16T02:26:06;98521.38;;;-2.24;63.87
34081;BME280;20358;50.272;19.026;2023-03-16T02:29:28;98532.75;;;-2.33;63.74
34081;BME280;20358;50.272;19.026;2023-03-16T02:33:16;98534.63;;;-2.41;64.96
34081;BME280;20358;50.272;19.026;2023-03-16T02:36:24;98543.31;;;-2.42;64.06
34081;BME280;20358;50.272;19.026;2023-03-16T02:39:31;98546.75;;;-2.43;64.94
34081;BME280;20358;50.272;19.026;2023-03-16T02:42:37;98556.31;;;-2.46;64.07
34081;BME280;20358;50.272;19.026;2023-03-16T02:45:46;98559.81;;;-2.49;64.29
34081;BME280;20358;50.272;19.026;2023-03-16T02:49:06;98562.41;;;-2.49;64.07
34081;BME280;20358;50.272;19.026;2023-03-16T02:52:18;98560.75;;;-2.53;64.86
34081;BME280;20358;50.272;19.026;2023-03-16T02:55:24;98568.50;;;-2.53;64.88
34081;BME280;20358;50.272;19.026;2023-03-16T02:58:30;98577.16;;;-2.56;64.55
34081;BME280;20358;50.272;19.026;2023-03-16T03:01:39;98581.47;;;-2.56;64.47
34081;BME280;20358;50.272;19.026;2023-03-16T03:04:48;98567.91;;;-2.67;64.90
34081;BME280;20358;50.272;19.026;2023-03-16T03:07:57;98590.13;;;-2.57;64.66
34081;BME280;20358;50.272;19.026;2023-03-16T03:11:04;98596.13;;;-2.57;64.62
34081;BME280;20358;50.272;19.026;2023-03-16T03:14:10;98588.41;;;-2.58;64.61
34081;BME280;20358;50.272;19.026;2023-03-16T03:17:22;98596.22;;;-2.60;65.97
34081;BME280;20358;50.272;19.026;2023-03-16T03:20:34;98597.03;;;-2.59;65.72
34081;BME280;20358;50.272;19.026;2023-03-16T03:23:41;98598.75;;;-2.58;65.52
34081;BME280;20358;50.272;19.026;2023-03-16T03:26:47;98586.66;;;-2.56;65.07
34081;BME280;20358;50.272;19.026;2023-03-16T03:29:55;98593.53;;;-2.55;64.74
34081;BME280;20358;50.272;19.026;2023-03-16T03:33:02;98598.66;;;-2.52;64.53
34081;BME280;20358;50.272;19.026;2023-03-16T03:36:13;98602.06;;;-2.50;65.30
34081;BME280;20358;50.272;19.026;2023-03-16T03:39:20;98610.59;;;-2.45;65.23
34081;BME280;20358;50.272;19.026;2023-03-16T03:42:27;98612.22;;;-2.41;64.50
34081;BME280;20358;50.272;19.026;2023-03-16T03:45:33;98610.53;;;-2.42;65.12
34081;BME280;20358;50.272;19.026;2023-03-16T03:48:39;98615.72;;;-2.42;64.76
34081;BME280;20358;50.272;19.026;2023-03-16T03:51:48;98614.91;;;-2.45;64.66
34081;BME280;20358;50.272;19.026;2023-03-16T03:54:59;98624.50;;;-2.52;64.84
34081;BME280;20358;50.272;19.026;2023-03-16T03:58:04;98621.09;;;-2.54;64.88
34081;BME280;20358;50.272;19.026;2023-03-16T04:01:11;98625.38;;;-2.51;64.78
34081;BME280;20358;50.272;19.026;2023-03-16T04:04:16;98635.72;;;-2.53;64.77
34081;BME280;20358;50.272;19.026;2023-03-16T04:07:25;98631.53;;;-2.60;65.38
34081;BME280;20358;50.272;19.026;2023-03-16T04:10:36;98636.78;;;-2.63;65.06
34081;BME280;20358;50.272;19.026;2023-03-16T04:13:43;98645.50;;;-2.70;65.46
34081;BME280;20358;50.272;19.026;2023-03-16T04:16:48;98642.16;;;-2.75;65.86
34081;BME280;20358;50.272;19.026;2023-03-16T04:19:57;98639.63;;;-2.78;66.13
34081;BME280;20358;50.272;19.026;2023-03-16T04:23:06;98640.47;;;-2.79;65.31
34081;BME280;20358;50.272;19.026;2023-03-16T04:26:15;98656.03;;;-2.82;66.11
34081;BME280;20358;50.272;19.026;2023-03-16T04:29:22;98646.56;;;-2.80;66.22
34081;BME280;20358;50.272;19.026;2023-03-16T04:32:30;98648.22;;;-2.78;65.86
34081;BME280;20358;50.272;19.026;2023-03-16T04:35:36;98655.09;;;-2.77;65.26
34081;BME280;20358;50.272;19.026;2023-03-16T04:38:46;98657.66;;;-2.75;65.46
34081;BME280;20358;50.272;19.026;2023-03-16T04:41:53;98648.19;;;-2.76;66.20
34081;BME280;20358;50.272;19.026;2023-03-16T04:45:01;98648.91;;;-2.68;65.54
34081;BME280;20358;50.272;19.026;2023-03-16T04:48:07;98649.69;;;-2.63;64.73
34081;BME280;20358;50.272;19.026;2023-03-16T04:51:14;98652.22;;;-2.60;65.42
34081;BME280;20358;50.272;19.026;2023-03-16T04:54:36;98655.56;;;-2.54;64.81
34081;BME280;20358;50.272;19.026;2023-03-16T04:57:44;98660.72;;;-2.52;64.36
34081;BME280;20358;50.272;19.026;2023-03-16T05:00:50;98664.06;;;-2.47;64.86
34081;BME280;20358;50.272;19.026;2023-03-16T05:04:01;98661.41;;;-2.42;64.78
34081;BME280;20358;50.272;19.026;2023-03-16T05:07:10;98667.38;;;-2.39;64.63
34081;BME280;20358;50.272;19.026;2023-03-16T05:10:25;98670.75;;;-2.34;64.66
34081;BME280;20358;50.272;19.026;2023-03-16T05:13:31;98674.09;;;-2.29;64.08
34081;BME280;20358;50.272;19.026;2023-03-16T05:16:39;98675.78;;;-2.26;64.22
34081;BME280;20358;50.272;19.026;2023-03-16T05:19:45;98675.81;;;-2.29;64.32
34081;BME280;20358;50.272;19.026;2023-03-16T05:22:53;98679.25;;;-2.29;64.26
34081;BME280;20358;50.272;19.026;2023-03-16T05:26:18;98660.47;;;-2.38;64.14
34081;BME280;20358;50.272;19.026;2023-03-16T05:29:25;98681.84;;;-2.29;63.65
34081;BME280;20358;50.272;19.026;2023-03-16T05:32:32;98688.94;;;-2.38;63.52
34081;BME280;20358;50.272;19.026;2023-03-16T05:35:39;98692.47;;;-2.44;64.62
34081;BME280;20358;50.272;19.026;2023-03-16T05:38:47;98692.50;;;-2.47;64.10
34081;BME280;20358;50.272;19.026;2023-03-16T05:42:09;98695.09;;;-2.47;65.17
34081;BME280;20358;50.272;19.026;2023-03-16T05:45:21;98701.09;;;-2.45;64.89
34081;BME280;20358;50.272;19.026;2023-03-16T05:48:38;98700.22;;;-2.44;64.31
34081;BME280;20358;50.272;19.026;2023-03-16T05:51:47;98699.47;;;-2.50;64.23
34081;BME280;20358;50.272;19.026;2023-03-16T05:54:54;98696.91;;;-2.52;65.43
34081;BME280;20358;50.272;19.026;2023-03-16T05:58:02;98706.47;;;-2.57;64.48
34081;BME280;20358;50.272;19.026;2023-03-16T06:01:11;98711.66;;;-2.57;65.15
34081;BME280;20358;50.272;19.026;2023-03-16T06:04:17;98712.44;;;-2.52;65.77
34081;BME280;20358;50.272;19.026;2023-03-16T06:07:24;98724.38;;;-2.45;65.37
34081;BME280;20358;50.272;19.026;2023-03-16T06:10:30;98730.41;;;-2.46;64.46
34081;BME280;20358;50.272;19.026;2023-03-16T06:13:39;98733.97;;;-2.53;65.20
34081;BME280;20358;50.272;19.026;2023-03-16T06:16:46;98745.16;;;-2.51;65.69
34081;BME280;20358;50.272;19.026;2023-03-16T06:19:52;98739.03;;;-2.45;64.86
34081;BME280;20358;50.272;19.026;2023-03-16T06:22:58;98738.84;;;-2.33;64.93
34081;BME280;20358;50.272;19.026;2023-03-16T06:26:04;98749.88;;;-2.24;64.67
34081;BME280;20358;50.272;19.026;2023-03-16T06:29:16;98750.47;;;-2.10;65.07
34081;BME280;20358;50.272;19.026;2023-03-16T06:32:22;98743.56;;;-2.08;64.55
34081;BME280;20358;50.272;19.026;2023-03-16T06:35:28;98755.66;;;-2.08;63.99
34081;BME280;20358;50.272;19.026;2023-03-16T06:38:50;98766.78;;;-2.05;64.11
34081;BME280;20358;50.272;19.026;2023-03-16T06:41:59;98765.78;;;-1.96;64.19
34081;BME280;20358;50.272;19.026;2023-03-16T06:45:10;98766.59;;;-1.93;64.55
34081;BME280;20358;50.272;19.026;2023-03-16T06:48:17;98767.34;;;-1.87;63.77
34081;BME280;20358;50.272;19.026;2023-03-16T06:51:24;98769.19;;;-1.94;63.94
34081;BME280;20358;50.272;19.026;2023-03-16T06:54:30;98771.72;;;-1.89;63.88
34081;BME280;20358;50.272;19.026;2023-03-16T06:57:40;98767.22;;;-1.80;64.19
34081;BME280;20358;50.272;19.026;2023-03-16T07:00:48;98776.56;;;-1.71;63.91
34081;BME280;20358;50.272;19.026;2023-03-16T07:03:55;98784.97;;;-1.60;63.59
34081;BME280;20358;50.272;19.026;2023-03-16T07:07:04;98776.97;;;-1.50;63.10
34081;BME280;20358;50.272;19.026;2023-03-16T07:10:12;98769.53;;;-1.23;62.61
34081;BME280;20358;50.272;19.026;2023-03-16T07:13:21;98776.97;;;-1.07;61.84
34081;BME280;20358;50.272;19.026;2023-03-16T07:16:30;98777.13;;;-0.75;61.78
34081;BME280;20358;50.272;19.026;2023-03-16T07:19:38;98792.25;;;-0.55;60.74
34081;BME280;20358;50.272;19.026;2023-03-16T07:22:47;98793.19;;;-0.57;60.32
34081;BME280;20358;50.272;19.026;2023-03-16T07:25:53;98786.06;;;-0.49;60.12
34081;BME280;20358;50.272;19.026;2023-03-16T07:29:00;98786.84;;;-0.46;60.77
34081;BME280;20358;50.272;19.026;2023-03-16T07:32:11;98794.81;;;-0.53;60.12
34081;BME280;20358;50.272;19.026;2023-03-16T07:35:17;98789.44;;;-0.44;59.70
34081;BME280;20358;50.272;19.026;2023-03-16T07:38:23;98792.91;;;-0.45;60.22
34081;BME280;20358;50.272;19.026;2023-03-16T07:41:30;98796.59;;;-0.55;60.01
34081;BME280;20358;50.272;19.026;2023-03-16T07:44:49;98770.06;;;-0.68;59.94
34081;BME280;20358;50.272;19.026;2023-03-16T07:47:58;98797.31;;;-0.50;59.87
34081;BME280;20358;50.272;19.026;2023-03-16T07:51:15;98798.72;;;-0.34;59.54
34081;BME280;20358;50.272;19.026;2023-03-16T07:54:23;98787.38;;;-0.30;59.24
34081;BME280;20358;50.272;19.026;2023-03-16T07:57:29;98794.44;;;-0.01;58.96
34081;BME280;20358;50.272;19.026;2023-03-16T08:00:37;98793.97;;;0.18;58.18
34081;BME280;20358;50.272;19.026;2023-03-16T08:03:46;98808.47;;;0.25;57.67
34081;BME280;20358;50.272;19.026;2023-03-16T08:06:53;98800.63;;;0.28;57.55
34081;BME280;20358;50.272;19.026;2023-03-16T08:10:09;98804.75;;;0.35;57.31
34081;BME280;20358;50.272;19.026;2023-03-16T08:13:24;98789.38;;;0.26;57.22
34081;BME280;20358;50.272;19.026;2023-03-16T08:16:31;98822.28;;;0.27;56.32
34081;BME280;20358;50.272;19.026;2023-03-16T08:19:42;98813.75;;;0.22;57.10
34081;BME280;20358;50.272;19.026;2023-03-16T08:22:48;98815.69;;;0.14;57.26
34081;BME280;20358;50.272;19.026;2023-03-16T08:25:59;98812.59;;;0.00;57.89
34081;BME280;20358;50.272;19.026;2023-03-16T08:29:11;98821.41;;;-0.07;58.12
34081;BME280;20358;50.272;19.026;2023-03-16T08:32:18;98820.53;;;-0.08;57.92
34081;BME280;20358;50.272;19.026;2023-03-16T08:35:29;98832.53;;;-0.02;57.79
34081;BME280;20358;50.272;19.026;2023-03-16T08:38:35;98826.50;;;-0.02;58.14
34081;BME280;20358;50.272;19.026;2023-03-16T08:41:44;98828.38;;;-0.09;58.16
34081;BME280;20358;50.272;19.026;2023-03-16T08:44:57;98823.06;;;-0.05;58.17
34081;BME280;20358;50.272;19.026;2023-03-16T08:48:17;98829.88;;;0.01;58.29
34081;BME280;20358;50.272;19.026;2023-03-16T08:51:27;98827.19;;;0.04;57.79
34081;BME280;20358;50.272;19.026;2023-03-16T08:54:34;98828.00;;;0.06;57.95
34081;BME280;20358;50.272;19.026;2023-03-16T08:57:40;98828.00;;;0.06;57.73
34081;BME280;20358;50.272;19.026;2023-03-16T09:00:48;98833.66;;;0.22;57.81
34081;BME280;20358;50.272;19.026;2023-03-16T09:03:53;98830.56;;;0.41;57.54
34081;BME280;20358;50.272;19.026;2023-03-16T09:07:02;98842.88;;;0.67;57.49
34081;BME280;20358;50.272;19.026;2023-03-16T09:10:10;98850.84;;;0.92;56.12
34081;BME280;20358;50.272;19.026;2023-03-16T09:13:18;98847.16;;;1.00;54.67
34081;BME280;20358;50.272;19.026;2023-03-16T09:16:24;98845.94;;;1.12;55.42
34081;BME280;20358;50.272;19.026;2023-03-16T09:19:33;98843.78;;;1.26;53.92
34081;BME280;20358;50.272;19.026;2023-03-16T09:23:01;98795.97;;;0.72;51.91
34081;BME280;20358;50.272;19.026;2023-03-16T09:26:09;98847.41;;;1.22;54.32
34081;BME280;20358;50.272;19.026;2023-03-16T09:29:16;98847.88;;;1.35;53.23
34081;BME280;20358;50.272;19.026;2023-03-16T09:32:24;98847.56;;;1.45;53.07
34081;BME280;20358;50.272;19.026;2023-03-16T09:35:29;98853.19;;;1.59;51.67
34081;BME280;20358;50.272;19.026;2023-03-16T09:38:41;98846.41;;;1.55;49.85
34081;BME280;20358;50.272;19.026;2023-03-16T09:41:53;98865.66;;;1.48;50.65
34081;BME280;20358;50.272;19.026;2023-03-16T09:45:14;98855.19;;;1.51;50.09
34081;BME280;20358;50.272;19.026;2023-03-16T09:48:26;98853.84;;;1.38;50.29
34081;BME280;20358;50.272;19.026;2023-03-16T09:51:44;98848.63;;;1.38;51.25
34081;BME280;20358;50.272;19.026;2023-03-16T09:55:03;98857.88;;;1.48;50.06
34081;BME280;20358;50.272;19.026;2023-03-16T09:58:21;98860.03;;;1.63;51.34
34081;BME280;20358;50.272;19.026;2023-03-16T10:01:40;98864.31;;;1.35;51.21
34081;BME280;20358;50.272;19.026;2023-03-16T10:05:05;98875.81;;;1.57;49.03
34081;BME280;20358;50.272;19.026;2023-03-16T10:08:26;98863.81;;;1.53;49.45
34081;BME280;20358;50.272;19.026;2023-03-16T10:11:45;98875.53;;;1.66;48.86
34081;BME280;20358;50.272;19.026;2023-03-16T10:15:00;98857.75;;;1.80;48.97
34081;BME280;20358;50.272;19.026;2023-03-16T10:18:16;98874.22;;;1.81;49.29
34081;BME280;20358;50.272;19.026;2023-03-16T10:21:32;98880.19;;;1.84;49.71
34081;BME280;20358;50.272;19.026;2023-03-16T10:24:54;98897.53;;;1.86;48.40
34081;BME280;20358;50.272;19.026;2023-03-16T10:28:20;98882.38;;;1.70;45.99
34081;BME280;20358;50.272;19.026;2023-03-16T10:31:28;98893.59;;;1.72;46.80
34081;BME280;20358;50.272;19.026;2023-03-16T10:34:33;98876.44;;;1.65;47.03
34081;BME280;20358;50.272;19.026;2023-03-16T10:37:40;98884.81;;;1.76;47.61
34081;BME280;20358;50.272;19.026;2023-03-16T10:40:51;98858.72;;;1.49;47.13
34081;BME280;20358;50.272;19.026;2023-03-16T10:44:09;98883.78;;;1.80;47.33
34081;BME280;20358;50.272;19.026;2023-03-16T10:47:20;98869.13;;;2.06;47.86
34081;BME280;20358;50.272;19.026;2023-03-16T10:50:28;98865.63;;;2.07;47.04
34081;BME280;20358;50.272;19.026;2023-03-16T10:53:37;98891.28;;;2.19;47.06
34081;BME280;20358;50.272;19.026;2023-03-16T10:56:47;98875.38;;;2.28;46.31
34081;BME280;20358;50.272;19.026;2023-03-16T11:00:03;98867.31;;;2.34;46.82
34081;BME280;20358;50.272;19.026;2023-03-16T11:03:25;98879.03;;;2.47;45.30
34081;BME280;20358;50.272;19.026;2023-03-16T11:06:33;98875.72;;;2.68;46.26
34081;BME280;20358;50.272;19.026;2023-03-16T11:09:40;98873.25;;;2.88;45.84
34081;BME280;20358;50.272;19.026;2023-03-16T11:12:46;98866.97;;;3.19;44.62
34081;BME280;20358;50.272;19.026;2023-03-16T11:16:01;98857.78;;;3.32;44.61
34081;BME280;20358;50.272;19.026;2023-03-16T11:19:17;98732.78;;;2.55;45.44
34081;BME280;20358;50.272;19.026;2023-03-16T11:22:29;98859.22;;;3.39;44.78
34081;BME280;20358;50.272;19.026;2023-03-16T11:25:41;98862.41;;;3.47;43.06
34081;BME280;20358;50.272;19.026;2023-03-16T11:28:58;98863.00;;;3.53;42.34
34081;BME280;20358;50.272;19.026;2023-03-16T11:32:19;98863.97;;;3.51;42.82
34081;BME280;20358;50.272;19.026;2023-03-16T11:35:40;98854.75;;;3.42;43.05
34081;BME280;20358;50.272;19.026;2023-03-16T11:39:10;98871.31;;;3.41;42.65
34081;BME280;20358;50.272;19.026;2023-03-16T11:42:36;98865.53;;;3.33;42.89
34081;BME280;20358;50.272;19.026;2023-03-16T11:46:06;98859.91;;;3.21;40.06
34081;BME280;20358;50.272;19.026;2023-03-16T11:49:38;98857.31;;;3.21;39.64
34081;BME280;20358;50.272;19.026;2023-03-16T11:53:05;98846.09;;;3.19;41.75
34081;BME280;20358;50.272;19.026;2023-03-16T11:56:30;98849.13;;;3.30;41.83
34081;BME280;20358;50.272;19.026;2023-03-16T11:59:55;98849.53;;;3.42;41.48
34081;BME280;20358;50.272;19.026;2023-03-16T12:03:34;98855.09;;;3.33;42.98
34081;BME280;20358;50.272;19.026;2023-03-16T12:07:04;98847.34;;;3.32;42.68
34081;BME280;20358;50.272;19.026;2023-03-16T12:10:28;98846.53;;;3.53;43.44
34081;BME280;20358;50.272;19.026;2023-03-16T12:13:59;98848.22;;;3.54;40.24
34081;BME280;20358;50.272;19.026;2023-03-16T12:17:23;98743.50;;;2.70;41.02
34081;BME280;20358;50.272;19.026;2023-03-16T12:20:43;98846.00;;;3.43;41.48
34081;BME280;20358;50.272;19.026;2023-03-16T12:24:02;98836.31;;;3.47;42.19
34081;BME280;20358;50.272;19.026;2023-03-16T12:27:14;98841.72;;;3.64;42.13
34081;BME280;20358;50.272;19.026;2023-03-16T12:30:36;98854.47;;;3.50;40.25
34081;BME280;20358;50.272;19.026;2023-03-16T12:34:03;98854.09;;;3.59;39.27
34081;BME280;20358;50.272;19.026;2023-03-16T12:37:30;98837.72;;;3.77;39.43
34081;BME280;20358;50.272;19.026;2023-03-16T12:40:51;98830.00;;;3.74;39.50
34081;BME280;20358;50.272;19.026;2023-03-16T12:44:13;98848.59;;;3.66;39.31
34081;BME280;20358;50.272;19.026;2023-03-16T12:47:31;98838.56;;;3.78;39.46
34081;BME280;20358;50.272;19.026;2023-03-16T12:50:51;98844.44;;;3.61;38.52
34081;BME280;20358;50.272;19.026;2023-03-16T12:53:58;98845.81;;;3.71;39.58
34081;BME280;20358;50.272;19.026;2023-03-16T12:57:15;98834.25;;;3.77;38.72
34081;BME280;20358;50.272;19.026;2023-03-16T13:00:32;98841.94;;;3.81;39.06
34081;BME280;20358;50.272;19.026;2023-03-16T13:03:41;98847.13;;;3.83;38.51
34081;BME280;20358;50.272;19.026;2023-03-16T13:06:50;98823.09;;;3.73;39.61
34081;BME280;20358;50.272;19.026;2023-03-16T13:10:08;98845.09;;;4.11;39.14
34081;BME280;20358;50.272;19.026;2023-03-16T13:13:20;98843.63;;;4.25;37.98
34081;BME280;20358;50.272;19.026;2023-03-16T13:16:31;98838.25;;;4.28;37.67
34081;BME280;20358;50.272;19.026;2023-03-16T13:19:40;98839.59;;;4.39;37.87
34081;BME280;20358;50.272;19.026;2023-03-16T13:22:51;98842.34;;;4.56;37.88
34081;BME280;20358;50.272;19.026;2023-03-16T13:26:14;98837.84;;;4.59;37.33
34081;BME280;20358;50.272;19.026;2023-03-16T13:29:27;98838.97;;;4.54;37.42
34081;BME280;20358;50.272;19.026;2023-03-16T13:32:34;98849.09;;;4.61;37.52
34081;BME280;20358;50.272;19.026;2023-03-16T13:35:41;98842.59;;;4.50;37.97
34081;BME280;20358;50.272;19.026;2023-03-16T13:38:55;98844.63;;;4.63;37.98
34081;BME280;20358;50.272;19.026;2023-03-16T13:42:15;98845.50;;;4.64;37.60
34081;BME280;20358;50.272;19.026;2023-03-16T13:45:30;98827.69;;;4.52;37.77
34081;BME280;20358;50.272;19.026;2023-03-16T13:48:38;98840.38;;;4.61;37.42
34081;BME280;20358;50.272;19.026;2023-03-16T13:51:44;98836.50;;;4.49;37.31
34081;BME280;20358;50.272;19.026;2023-03-16T13:54:52;98839.38;;;4.23;37.19
34081;BME280;20358;50.272;19.026;2023-03-16T13:58:00;98840.59;;;4.14;37.27
34081;BME280;20358;50.272;19.026;2023-03-16T14:01:21;98841.38;;;4.16;38.06
34081;BME280;20358;50.272;19.026;2023-03-16T14:04:31;98838.69;;;4.18;37.34
34081;BME280;20358;50.272;19.026;2023-03-16T14:07:38;98839.00;;;4.10;36.70
34081;BME280;20358;50.272;19.026;2023-03-16T14:10:45;98840.97;;;4.05;37.36
34081;BME280;20358;50.272;19.026;2023-03-16T14:13:54;98846.56;;;3.96;37.45
34081;BME280;20358;50.272;19.026;2023-03-16T14:17:10;98840.41;;;3.97;38.14
34081;BME280;20358;50.272;19.026;2023-03-16T14:20:22;98837.56;;;4.03;38.20
34081;BME280;20358;50.272;19.026;2023-03-16T14:23:35;98792.59;;;3.74;37.62
34081;BME280;20358;50.272;19.026;2023-03-16T14:26:46;98855.44;;;3.92;38.13
34081;BME280;20358;50.272;19.026;2023-03-16T14:29:58;98836.69;;;3.81;38.32
34081;BME280;20358;50.272;19.026;2023-03-16T14:33:26;98837.13;;;3.71;38.40
34081;BME280;20358;50.272;19.026;2023-03-16T14:36:35;98843.22;;;3.71;38.46
34081;BME280;20358;50.272;19.026;2023-03-16T14:39:42;98841.94;;;3.81;38.20
34081;BME280;20358;50.272;19.026;2023-03-16T14:42:48;98841.47;;;3.93;38.18
34081;BME280;20358;50.272;19.026;2023-03-16T14:45:56;98846.47;;;3.99;37.18
34081;BME280;20358;50.272;19.026;2023-03-16T14:49:07;98844.75;;;3.98;37.12
34081;BME280;20358;50.272;19.026;2023-03-16T14:52:25;98844.75;;;3.98;36.66
34081;BME280;20358;50.272;19.026;2023-03-16T14:55:33;98842.31;;;3.94;37.21
34081;BME280;20358;50.272;19.026;2023-03-16T14:58:40;98850.28;;;3.91;36.97
34081;BME280;20358;50.272;19.026;2023-03-16T15:01:48;98852.16;;;3.87;37.69
34081;BME280;20358;50.272;19.026;2023-03-16T15:05:01;98853.97;;;3.85;36.80
34081;BME280;20358;50.272;19.026;2023-03-16T15:08:14;98853.19;;;3.82;36.75
34081;BME280;20358;50.272;19.026;2023-03-16T15:11:22;98857.84;;;3.75;36.89
34081;BME280;20358;50.272;19.026;2023-03-16T15:14:28;98861.34;;;3.74;37.03
34081;BME280;20358;50.272;19.026;2023-03-16T15:17:51;98862.31;;;3.72;37.92
34081;BME280;20358;50.272;19.026;2023-03-16T15:21:00;98856.13;;;3.74;37.25
34081;BME280;20358;50.272;19.026;2023-03-16T15:24:10;98861.34;;;3.74;35.48
34081;BME280;20358;50.272;19.026;2023-03-16T15:27:20;98854.19;;;3.79;35.92
34081;BME280;20358;50.272;19.026;2023-03-16T15:30:30;98847.78;;;3.88;35.44
34081;BME280;20358;50.272;19.026;2023-03-16T15:33:36;98845.72;;;3.96;35.67
34081;BME280;20358;50.272;19.026;2023-03-16T15:36:46;98852.22;;;4.07;36.19
34081;BME280;20358;50.272;19.026;2023-03-16T15:39:51;98845.84;;;4.14;35.42
34081;BME280;20358;50.272;19.026;2023-03-16T15:42:58;98846.28;;;4.24;35.17
34081;BME280;20358;50.272;19.026;2023-03-16T15:46:03;98848.72;;;4.28;35.28
34081;BME280;20358;50.272;19.026;2023-03-16T15:49:10;98853.94;;;4.28;35.35
34081;BME280;20358;50.272;19.026;2023-03-16T15:52:28;98851.53;;;4.24;34.81
34081;BME280;20358;50.272;19.026;2023-03-16T15:55:40;98859.03;;;4.11;34.44
34081;BME280;20358;50.272;19.026;2023-03-16T15:58:47;98856.41;;;4.11;34.30
34081;BME280;20358;50.272;19.026;2023-03-16T16:01:54;98857.06;;;4.16;35.19
34081;BME280;20358;50.272;19.026;2023-03-16T16:05:00;98863.06;;;4.18;35.07
34081;BME280;20358;50.272;19.026;2023-03-16T16:08:09;98863.06;;;4.18;34.16
34081;BME280;20358;50.272;19.026;2023-03-16T16:11:18;98867.44;;;4.18;34.79
34081;BME280;20358;50.272;19.026;2023-03-16T16:14:29;98861.13;;;4.23;34.65
34081;BME280;20358;50.272;19.026;2023-03-16T16:17:35;98867.94;;;4.27;34.36
34081;BME280;20358;50.272;19.026;2023-03-16T16:21:04;98867.69;;;4.34;34.48
34081;BME280;20358;50.272;19.026;2023-03-16T16:24:13;98867.44;;;4.40;35.00
34081;BME280;20358;50.272;19.026;2023-03-16T16:27:20;98870.72;;;4.45;34.62
34081;BME280;20358;50.272;19.026;2023-03-16T16:30:29;98868.63;;;4.53;35.16
34081;BME280;20358;50.272;19.026;2023-03-16T16:33:36;98868.50;;;4.56;34.84
34081;BME280;20358;50.272;19.026;2023-03-16T16:36:43;98876.41;;;4.54;34.53
34081;BME280;20358;50.272;19.026;2023-03-16T16:39:52;98877.66;;;4.46;34.44
34081;BME280;20358;50.272;19.026;2023-03-16T16:43:03;98882.88;;;4.46;35.13
34081;BME280;20358;50.272;19.026;2023-03-16T16:46:14;98885.69;;;4.41;35.00
34081;BME280;20358;50.272;19.026;2023-03-16T16:49:23;98879.72;;;4.38;34.32